createdAt,value
2022-11-29T05:04:37.552Z,5.57
2022-11-29T05:09:02.962Z,7.47
2022-11-29T05:13:39.414Z,6.45
2022-11-29T05:18:09.643Z,6.80
2022-11-29T05:22:44.611Z,7.05
2022-11-29T05:27:38.386Z,7.43
2022-11-29T05:32:18.659Z,5.93
2022-11-29T05:36:51.381Z,5.93
2022-11-29T05:41:17.726Z,5.90
2022-11-29T05:45:55.328Z,12.40
2022-11-29T05:50:23.162Z,15.23
2022-11-29T05:55:07.160Z,14.95
2022-11-29T05:59:23.938Z,16.75
2022-11-29T06:03:41.781Z,20.25
2022-11-29T06:08:18.088Z,21.88
2022-11-29T06:12:35.685Z,21.00
2022-11-29T06:16:47.853Z,22.58
2022-11-29T06:21:17.454Z,19.63
2022-11-29T06:25:46.978Z,19.58
2022-11-29T06:30:17.231Z,17.15
2022-11-29T06:34:52.166Z,20.00
2022-11-29T06:39:04.728Z,20.63
2022-11-29T06:43:17.074Z,30.17
2022-11-29T06:47:35.681Z,24.73
2022-11-29T06:52:14.795Z,26.85
2022-11-29T06:56:33.703Z,23.77
2022-11-29T07:01:03.467Z,24.13
2022-11-29T07:05:27.604Z,15.98
2022-11-29T07:09:40.133Z,21.88
2022-11-29T07:13:51.816Z,23.65
2022-11-29T07:18:22.635Z,24.92
2022-11-29T07:22:52.713Z,21.77
2022-11-29T07:27:23.035Z,22.27
2022-11-29T07:31:53.039Z,23.88
2022-11-29T07:36:26.523Z,19.67
2022-11-29T07:40:53.146Z,18.13
2022-11-29T07:45:11.946Z,18.88
2022-11-29T07:49:23.440Z,19.73
2022-11-29T07:53:42.385Z,18.10
2022-11-29T07:57:53.865Z,17.65
2022-11-29T08:02:11.293Z,17.70
2022-11-29T08:06:25.345Z,21.83
2022-11-29T08:10:36.879Z,18.50
2022-11-29T08:14:48.484Z,19.15
2022-11-29T08:19:00.307Z,17.27
2022-11-29T08:23:13.430Z,21.92
2022-11-29T08:27:24.918Z,20.48
2022-11-29T08:31:36.474Z,20.38
2022-11-29T08:35:48.024Z,15.70
2022-11-29T08:39:59.488Z,19.30
2022-11-29T08:44:10.965Z,15.77
2022-11-29T08:48:22.499Z,11.90
2022-11-29T08:52:58.155Z,12.38
2022-11-29T08:57:38.671Z,17.73
2022-11-29T09:01:41.169Z,24.15
2022-11-29T09:05:52.933Z,22.80
2022-11-29T09:10:08.115Z,17.45
2022-11-29T09:14:22.086Z,15.52
2022-11-29T09:18:33.676Z,14.93
2022-11-29T09:22:45.140Z,17.45
2022-11-29T09:26:56.649Z,13.60
2022-11-29T09:31:12.336Z,13.10
2022-11-29T09:35:23.844Z,12.65
2022-11-29T09:39:35.348Z,13.38
2022-11-29T09:44:05.123Z,14.95
2022-11-29T09:48:36.893Z,13.50
2022-11-29T09:52:58.353Z,15.18
2022-11-29T09:57:11.211Z,18.05
2022-11-29T10:01:31.906Z,14.25
2022-11-29T10:05:49.890Z,12.57
2022-11-29T10:10:08.696Z,12.10
2022-11-29T10:14:25.107Z,12.85
2022-11-29T10:18:46.145Z,50.67
2022-11-29T10:23:20.392Z,38.65
2022-11-29T10:27:31.882Z,15.40
2022-11-29T10:31:46.931Z,12.23
2022-11-29T10:36:02.348Z,16.45
2022-11-29T10:40:21.109Z,9.32
2022-11-29T10:44:33.632Z,13.05
2022-11-29T10:48:45.155Z,10.88
2022-11-29T10:53:04.450Z,12.88
2022-11-29T10:57:22.065Z,14.60
2022-11-29T11:01:40.955Z,14.68
2022-11-29T11:06:14.838Z,10.98
2022-11-29T11:10:29.365Z,10.15
2022-11-29T11:14:41.848Z,14.60
2022-11-29T11:18:54.146Z,9.00
2022-11-29T11:23:20.874Z,11.52
2022-11-29T11:27:35.495Z,10.98
2022-11-29T11:31:57.605Z,7.88
2022-11-29T11:36:21.217Z,8.88
2022-11-29T11:40:34.500Z,7.78
2022-11-29T11:44:52.468Z,10.57
2022-11-29T11:49:12.880Z,11.02
2022-11-29T11:53:35.786Z,12.07
2022-11-29T11:58:10.200Z,9.95
2022-11-29T12:02:37.320Z,8.00
2022-11-29T12:06:55.112Z,12.98
2022-11-29T12:11:12.372Z,10.00
2022-11-29T12:15:29.529Z,9.57
2022-11-29T12:19:52.755Z,9.70
2022-11-29T12:24:18.932Z,8.55
2022-11-29T12:28:33.468Z,8.13
2022-11-29T12:33:03.300Z,8.75
2022-11-29T12:37:26.831Z,10.45
2022-11-29T12:41:41.318Z,11.27
2022-11-29T12:46:19.289Z,9.05
2022-11-29T12:50:49.696Z,9.75
2022-11-29T12:55:22.207Z,7.72
2022-11-29T12:59:55.574Z,7.15
2022-11-29T13:04:06.998Z,9.50
2022-11-29T13:08:37.227Z,7.70
2022-11-29T13:12:53.774Z,7.97
2022-11-29T13:17:25.396Z,11.40
2022-11-29T13:21:44.889Z,8.88
2022-11-29T13:26:00.508Z,12.10
2022-11-29T13:30:16.227Z,13.35
2022-11-29T13:34:38.925Z,11.23
2022-11-29T13:39:08.760Z,13.02
2022-11-29T13:43:35.382Z,10.00
2022-11-29T13:47:54.555Z,17.00
2022-11-29T13:52:06.800Z,15.02
2022-11-29T13:56:36.405Z,12.73
2022-11-29T14:00:50.785Z,12.50
2022-11-29T14:05:02.563Z,14.73
2022-11-29T14:09:22.978Z,15.45
2022-11-29T14:13:49.059Z,12.90
2022-11-29T14:18:09.368Z,14.65
2022-11-29T14:22:22.175Z,17.83
2022-11-29T14:26:33.842Z,11.98
2022-11-29T14:30:48.080Z,14.55
2022-11-29T14:35:05.554Z,12.02
2022-11-29T14:39:50.502Z,18.05
2022-11-29T14:44:19.105Z,32.67
2022-11-29T14:48:33.037Z,28.40
2022-11-29T14:52:52.066Z,35.70
2022-11-29T14:57:41.005Z,30.27
2022-11-29T15:01:52.742Z,26.48
2022-11-29T15:06:19.012Z,23.48
2022-11-29T15:10:36.004Z,29.38
2022-11-29T15:15:04.573Z,44.75
2022-11-29T15:19:39.477Z,46.67
2022-11-29T15:23:59.522Z,31.95
2022-11-29T15:28:22.386Z,37.53
2022-11-29T15:32:34.266Z,33.40
2022-11-29T15:36:46.652Z,37.92
2022-11-29T15:40:59.093Z,39.15
2022-11-29T15:45:35.702Z,30.20
2022-11-29T15:49:56.402Z,19.38
2022-11-29T15:54:13.787Z,24.05
2022-11-29T15:58:28.464Z,17.75
2022-11-29T16:02:48.593Z,19.35
2022-11-29T16:07:00.214Z,14.93
2022-11-29T16:11:21.148Z,13.93
2022-11-29T16:15:35.985Z,15.85
2022-11-29T16:19:48.247Z,14.68
2022-11-29T16:24:14.003Z,11.60
2022-11-29T16:28:31.166Z,14.77
2022-11-29T16:32:43.516Z,17.77
2022-11-29T16:37:00.992Z,15.23
2022-11-29T16:41:32.404Z,16.83
2022-11-29T16:45:45.187Z,17.05
2022-11-29T16:50:02.711Z,16.45
2022-11-29T16:54:24.149Z,18.30
2022-11-29T16:58:41.718Z,16.63
2022-11-29T17:03:09.292Z,13.02
2022-11-29T17:07:33.565Z,19.63
2022-11-29T17:11:46.302Z,18.15
2022-11-29T17:15:57.961Z,18.60
2022-11-29T17:20:12.386Z,17.45
2022-11-29T17:24:24.543Z,19.17
2022-11-29T17:28:36.108Z,20.85
2022-11-29T17:32:47.960Z,15.25
2022-11-29T17:36:59.496Z,21.42
2022-11-29T17:41:13.487Z,18.55
2022-11-29T17:45:25.038Z,18.00
2022-11-29T17:49:36.568Z,19.95
2022-11-29T17:53:49.117Z,19.08
2022-11-29T17:58:00.642Z,18.65
2022-11-29T18:02:12.977Z,23.42
2022-11-29T18:06:27.133Z,25.08
2022-11-29T18:10:38.681Z,19.88
2022-11-29T18:14:50.855Z,32.92
2022-11-29T18:19:04.037Z,47.58
2022-11-29T18:23:15.578Z,32.05
2022-11-29T18:27:27.176Z,25.55
2022-11-29T18:31:42.032Z,20.65
2022-11-29T18:35:53.558Z,24.17
2022-11-29T18:40:05.572Z,25.10
2022-11-29T18:44:20.090Z,32.97
2022-11-29T18:48:31.617Z,30.70
2022-11-29T18:52:43.134Z,21.73
2022-11-29T18:56:54.671Z,21.70
2022-11-29T19:01:17.008Z,22.55
2022-11-29T19:05:28.959Z,21.10
2022-11-29T19:09:40.505Z,24.05
2022-11-29T19:14:00.088Z,16.30
2022-11-29T19:18:11.594Z,20.90
2022-11-29T19:22:23.108Z,18.05
2022-11-29T19:26:34.690Z,19.55
2022-11-29T19:30:54.240Z,20.88
2022-11-29T19:35:06.363Z,16.20
2022-11-29T19:39:17.892Z,19.60
2022-11-29T19:43:31.618Z,16.98
2022-11-29T19:47:43.169Z,14.50
2022-11-29T19:51:54.671Z,20.85
2022-11-29T19:56:08.244Z,17.05
2022-11-29T20:00:20.002Z,21.90
2022-11-29T20:04:31.899Z,25.83
2022-11-29T20:08:44.249Z,24.50
2022-11-29T20:12:55.777Z,23.38
2022-11-29T20:17:07.322Z,19.38
2022-11-29T20:21:25.129Z,22.88
2022-11-29T20:25:36.714Z,23.70
2022-11-29T20:29:48.687Z,22.20
2022-11-29T20:34:00.478Z,32.00
2022-11-29T20:45:01.031Z,22.50
2022-11-29T20:49:17.233Z,21.55
2022-11-29T20:53:37.101Z,22.70
2022-11-29T20:57:49.859Z,25.25
2022-11-29T21:02:02.569Z,22.23
2022-11-29T21:06:14.174Z,25.17
2022-11-29T21:10:25.709Z,20.23
2022-11-29T21:14:37.467Z,20.33
2022-11-29T21:18:49.313Z,19.35
2022-11-29T21:23:07.465Z,19.65
2022-11-29T21:27:32.409Z,17.65
2022-11-29T21:31:45.161Z,17.60
2022-11-29T21:35:59.646Z,18.60
2022-11-29T21:40:13.401Z,19.42
2022-11-29T21:44:24.935Z,22.95
2022-11-29T21:48:37.654Z,20.80
2022-11-29T21:52:51.731Z,22.20
2022-11-29T21:57:03.275Z,21.30
2022-11-29T22:01:17.890Z,21.65
2022-11-29T22:05:29.700Z,20.23
2022-11-29T22:09:41.343Z,21.83
2022-11-29T22:14:12.044Z,21.33
2022-11-29T22:18:26.922Z,22.92
2022-11-29T22:22:38.506Z,25.50
2022-11-29T22:26:51.470Z,19.92
